sensor_id;sensor_type;location;lat;lon;timestamp;P1;durP1;ratioP1;P2;durP2;ratioP2
82513;SDS011;72858;52.130;5.584;2023-10-31T00:00:05;7.30;;;4.97;;
82513;SDS011;72858;52.130;5.584;2023-10-31T00:02:30;9.68;;;4.50;;
82513;SDS011;72858;52.130;5.584;2023-10-31T00:04:55;6.63;;;3.45;;
82513;SDS011;72858;52.130;5.584;2023-10-31T00:07:20;5.03;;;3.37;;
82513;SDS011;72858;52.130;5.584;2023-10-31T00:09:46;6.63;;;2.97;;
82513;SDS011;72858;52.130;5.584;2023-10-31T00:12:11;5.10;;;3.20;;
82513;SDS011;72858;52.130;5.584;2023-10-31T00:14:36;6.50;;;2.80;;
82513;SDS011;72858;52.130;5.584;2023-10-31T00:17:01;4.85;;;3.00;;
82513;SDS011;72858;52.130;5.584;2023-10-31T00:19:26;4.47;;;2.83;;
82513;SDS011;72858;52.130;5.584;2023-10-31T00:21:52;7.17;;;2.40;;
82513;SDS011;72858;52.130;5.584;2023-10-31T00:24:17;5.43;;;2.15;;
82513;SDS011;72858;52.130;5.584;2023-10-31T00:26:42;4.78;;;1.50;;
82513;SDS011;72858;52.130;5.584;2023-10-31T00:29:07;6.20;;;2.13;;
82513;SDS011;72858;52.130;5.584;2023-10-31T00:31:32;4.97;;;1.60;;
82513;SDS011;72858;52.130;5.584;2023-10-31T00:33:59;5.90;;;1.40;;
82513;SDS011;72858;52.130;5.584;2023-10-31T00:36:27;6.82;;;1.13;;
82513;SDS011;72858;52.130;5.584;2023-10-31T00:38:53;5.83;;;1.50;;
82513;SDS011;72858;52.130;5.584;2023-10-31T00:41:18;3.77;;;1.60;;
82513;SDS011;72858;52.130;5.584;2023-10-31T00:43:43;4.50;;;1.20;;
82513;SDS011;72858;52.130;5.584;2023-10-31T00:46:08;4.10;;;1.20;;
82513;SDS011;72858;52.130;5.584;2023-10-31T00:48:33;3.77;;;1.27;;
82513;SDS011;72858;52.130;5.584;2023-10-31T00:51:05;4.72;;;1.60;;
82513;SDS011;72858;52.130;5.584;2023-10-31T00:53:31;8.40;;;2.90;;
82513;SDS011;72858;52.130;5.584;2023-10-31T00:55:56;13.27;;;5.10;;
82513;SDS011;72858;52.130;5.584;2023-10-31T00:58:21;7.03;;;5.23;;
82513;SDS011;72858;52.130;5.584;2023-10-31T01:00:46;10.30;;;6.33;;
82513;SDS011;72858;52.130;5.584;2023-10-31T01:03:11;9.93;;;6.87;;
82513;SDS011;72858;52.130;5.584;2023-10-31T01:05:40;10.67;;;7.47;;
82513;SDS011;72858;52.130;5.584;2023-10-31T01:08:05;11.25;;;5.90;;
82513;SDS011;72858;52.130;5.584;2023-10-31T01:10:30;12.38;;;7.63;;
82513;SDS011;72858;52.130;5.584;2023-10-31T01:12:55;10.95;;;8.25;;
82513;SDS011;72858;52.130;5.584;2023-10-31T01:15:20;11.17;;;9.00;;
82513;SDS011;72858;52.130;5.584;2023-10-31T01:17:46;14.80;;;10.23;;
82513;SDS011;72858;52.130;5.584;2023-10-31T01:20:11;20.63;;;13.03;;
82513;SDS011;72858;52.130;5.584;2023-10-31T01:22:36;17.85;;;12.82;;
82513;SDS011;72858;52.130;5.584;2023-10-31T01:25:03;21.17;;;13.27;;
82513;SDS011;72858;52.130;5.584;2023-10-31T01:27:28;20.63;;;13.43;;
82513;SDS011;72858;52.130;5.584;2023-10-31T01:29:53;22.20;;;14.23;;
82513;SDS011;72858;52.130;5.584;2023-10-31T01:32:18;22.25;;;14.32;;
82513;SDS011;72858;52.130;5.584;2023-10-31T01:34:44;22.33;;;14.23;;
82513;SDS011;72858;52.130;5.584;2023-10-31T01:37:09;21.08;;;14.45;;
82513;SDS011;72858;52.130;5.584;2023-10-31T01:39:35;20.57;;;13.10;;
82513;SDS011;72858;52.130;5.584;2023-10-31T01:42:01;17.75;;;11.70;;
82513;SDS011;72858;52.130;5.584;2023-10-31T01:44:26;22.00;;;12.13;;
82513;SDS011;72858;52.130;5.584;2023-10-31T01:46:51;20.50;;;12.77;;
82513;SDS011;72858;52.130;5.584;2023-10-31T01:49:17;18.83;;;12.43;;
82513;SDS011;72858;52.130;5.584;2023-10-31T01:51:42;22.60;;;13.70;;
82513;SDS011;72858;52.130;5.584;2023-10-31T01:54:08;19.42;;;12.40;;
82513;SDS011;72858;52.130;5.584;2023-10-31T01:56:34;15.77;;;11.93;;
82513;SDS011;72858;52.130;5.584;2023-10-31T01:58:59;19.45;;;11.30;;
82513;SDS011;72858;52.130;5.584;2023-10-31T02:01:24;15.13;;;10.53;;
82513;SDS011;72858;52.130;5.584;2023-10-31T02:03:49;14.20;;;9.73;;
82513;SDS011;72858;52.130;5.584;2023-10-31T02:06:15;15.13;;;10.30;;
82513;SDS011;72858;52.130;5.584;2023-10-31T02:08:40;18.27;;;9.68;;
82513;SDS011;72858;52.130;5.584;2023-10-31T02:11:06;14.65;;;9.80;;
82513;SDS011;72858;52.130;5.584;2023-10-31T02:13:34;17.27;;;11.23;;
82513;SDS011;72858;52.130;5.584;2023-10-31T02:16:00;14.65;;;10.20;;
82513;SDS011;72858;52.130;5.584;2023-10-31T02:18:25;15.73;;;10.40;;
82513;SDS011;72858;52.130;5.584;2023-10-31T02:20:50;18.20;;;10.30;;
82513;SDS011;72858;52.130;5.584;2023-10-31T02:23:15;17.87;;;10.87;;
82513;SDS011;72858;52.130;5.584;2023-10-31T02:25:41;19.98;;;12.60;;
82513;SDS011;72858;52.130;5.584;2023-10-31T02:28:06;23.90;;;14.33;;
82513;SDS011;72858;52.130;5.584;2023-10-31T02:30:31;23.13;;;14.53;;
82513;SDS011;72858;52.130;5.584;2023-10-31T02:32:56;25.90;;;15.05;;
82513;SDS011;72858;52.130;5.584;2023-10-31T02:35:22;26.23;;;17.13;;
82513;SDS011;72858;52.130;5.584;2023-10-31T02:37:47;29.53;;;18.20;;
82513;SDS011;72858;52.130;5.584;2023-10-31T02:40:12;30.38;;;19.65;;
82513;SDS011;72858;52.130;5.584;2023-10-31T02:42:38;27.65;;;18.77;;
82513;SDS011;72858;52.130;5.584;2023-10-31T02:45:03;24.53;;;16.43;;
82513;SDS011;72858;52.130;5.584;2023-10-31T02:47:28;23.85;;;17.38;;
82513;SDS011;72858;52.130;5.584;2023-10-31T02:49:53;26.90;;;17.63;;
82513;SDS011;72858;52.130;5.584;2023-10-31T02:52:19;31.03;;;19.60;;
82513;SDS011;72858;52.130;5.584;2023-10-31T02:54:44;29.70;;;20.00;;
82513;SDS011;72858;52.130;5.584;2023-10-31T02:57:09;26.65;;;19.08;;
82513;SDS011;72858;52.130;5.584;2023-10-31T02:59:35;23.38;;;19.02;;
82513;SDS011;72858;52.130;5.584;2023-10-31T03:02:00;30.38;;;20.83;;
82513;SDS011;72858;52.130;5.584;2023-10-31T03:04:25;27.45;;;18.58;;
82513;SDS011;72858;52.130;5.584;2023-10-31T03:06:51;26.38;;;19.80;;
82513;SDS011;72858;52.130;5.584;2023-10-31T03:09:16;29.70;;;19.30;;
82513;SDS011;72858;52.130;5.584;2023-10-31T03:11:41;23.70;;;17.43;;
82513;SDS011;72858;52.130;5.584;2023-10-31T03:14:06;26.10;;;17.25;;
82513;SDS011;72858;52.130;5.584;2023-10-31T03:16:31;20.87;;;16.77;;
82513;SDS011;72858;52.130;5.584;2023-10-31T03:18:57;22.25;;;15.65;;
82513;SDS011;72858;52.130;5.584;2023-10-31T03:21:23;19.02;;;14.50;;
82513;SDS011;72858;52.130;5.584;2023-10-31T03:23:49;16.20;;;13.38;;
82513;SDS011;72858;52.130;5.584;2023-10-31T03:26:15;23.25;;;13.40;;
82513;SDS011;72858;52.130;5.584;2023-10-31T03:28:40;16.58;;;12.38;;
82513;SDS011;72858;52.130;5.584;2023-10-31T03:31:06;20.15;;;11.57;;
82513;SDS011;72858;52.130;5.584;2023-10-31T03:33:31;18.10;;;12.17;;
82513;SDS011;72858;52.130;5.584;2023-10-31T03:35:57;15.27;;;11.00;;
82513;SDS011;72858;52.130;5.584;2023-10-31T03:38:22;15.93;;;11.43;;
82513;SDS011;72858;52.130;5.584;2023-10-31T03:40:47;20.35;;;11.32;;
82513;SDS011;72858;52.130;5.584;2023-10-31T03:43:12;16.20;;;11.00;;
82513;SDS011;72858;52.130;5.584;2023-10-31T03:45:38;15.02;;;10.32;;
82513;SDS011;72858;52.130;5.584;2023-10-31T03:48:03;14.27;;;10.37;;
82513;SDS011;72858;52.130;5.584;2023-10-31T03:50:28;16.35;;;10.52;;
82513;SDS011;72858;52.130;5.584;2023-10-31T03:52:53;14.48;;;10.20;;
82513;SDS011;72858;52.130;5.584;2023-10-31T03:55:19;12.50;;;9.45;;
82513;SDS011;72858;52.130;5.584;2023-10-31T03:57:44;14.10;;;9.00;;
82513;SDS011;72858;52.130;5.584;2023-10-31T04:00:09;15.80;;;9.80;;
82513;SDS011;72858;52.130;5.584;2023-10-31T04:02:36;13.40;;;7.38;;
82513;SDS011;72858;52.130;5.584;2023-10-31T04:05:01;8.53;;;6.63;;
82513;SDS011;72858;52.130;5.584;2023-10-31T04:07:27;10.57;;;6.35;;
82513;SDS011;72858;52.130;5.584;2023-10-31T04:09:52;10.43;;;5.80;;
82513;SDS011;72858;52.130;5.584;2023-10-31T04:12:17;9.77;;;5.10;;
82513;SDS011;72858;52.130;5.584;2023-10-31T04:14:42;6.17;;;3.70;;
82513;SDS011;72858;52.130;5.584;2023-10-31T04:17:08;6.67;;;3.03;;
82513;SDS011;72858;52.130;5.584;2023-10-31T04:19:33;5.83;;;3.30;;
82513;SDS011;72858;52.130;5.584;2023-10-31T04:21:58;7.90;;;2.93;;
82513;SDS011;72858;52.130;5.584;2023-10-31T04:24:23;6.23;;;2.90;;
82513;SDS011;72858;52.130;5.584;2023-10-31T04:26:48;5.93;;;2.20;;
82513;SDS011;72858;52.130;5.584;2023-10-31T04:29:13;7.70;;;2.78;;
82513;SDS011;72858;52.130;5.584;2023-10-31T04:31:39;3.90;;;2.07;;
82513;SDS011;72858;52.130;5.584;2023-10-31T04:34:04;5.73;;;2.10;;
82513;SDS011;72858;52.130;5.584;2023-10-31T04:36:29;4.33;;;1.70;;
82513;SDS011;72858;52.130;5.584;2023-10-31T04:38:54;3.90;;;1.70;;
82513;SDS011;72858;52.130;5.584;2023-10-31T04:41:20;6.47;;;1.92;;
82513;SDS011;72858;52.130;5.584;2023-10-31T04:43:45;1.90;;;1.10;;
82513;SDS011;72858;52.130;5.584;2023-10-31T04:46:10;2.75;;;1.17;;
82513;SDS011;72858;52.130;5.584;2023-10-31T04:48:36;4.70;;;1.63;;
82513;SDS011;72858;52.130;5.584;2023-10-31T04:51:01;3.95;;;1.45;;
82513;SDS011;72858;52.130;5.584;2023-10-31T04:53:26;1.95;;;1.10;;
82513;SDS011;72858;52.130;5.584;2023-10-31T04:55:51;3.00;;;1.38;;
82513;SDS011;72858;52.130;5.584;2023-10-31T04:58:17;3.37;;;1.30;;
82513;SDS011;72858;52.130;5.584;2023-10-31T05:00:42;2.47;;;1.67;;
82513;SDS011;72858;52.130;5.584;2023-10-31T05:03:07;4.07;;;1.90;;
82513;SDS011;72858;52.130;5.584;2023-10-31T05:05:32;3.67;;;2.20;;
82513;SDS011;72858;52.130;5.584;2023-10-31T05:07:57;4.07;;;2.40;;
82513;SDS011;72858;52.130;5.584;2023-10-31T05:10:23;3.70;;;2.00;;
82513;SDS011;72858;52.130;5.584;2023-10-31T05:12:48;2.88;;;2.60;;
82513;SDS011;72858;52.130;5.584;2023-10-31T05:15:13;3.78;;;3.10;;
82513;SDS011;72858;52.130;5.584;2023-10-31T05:17:39;5.65;;;2.97;;
82513;SDS011;72858;52.130;5.584;2023-10-31T05:20:04;5.07;;;2.97;;
82513;SDS011;72858;52.130;5.584;2023-10-31T05:22:29;5.05;;;3.28;;
82513;SDS011;72858;52.130;5.584;2023-10-31T05:24:54;5.73;;;3.30;;
82513;SDS011;72858;52.130;5.584;2023-10-31T05:27:20;6.93;;;3.17;;
82513;SDS011;72858;52.130;5.584;2023-10-31T05:29:45;6.20;;;3.23;;
82513;SDS011;72858;52.130;5.584;2023-10-31T05:32:10;5.18;;;2.92;;
82513;SDS011;72858;52.130;5.584;2023-10-31T05:34:35;3.97;;;3.13;;
82513;SDS011;72858;52.130;5.584;2023-10-31T05:37:00;4.43;;;3.37;;
82513;SDS011;72858;52.130;5.584;2023-10-31T05:39:26;5.30;;;3.25;;
82513;SDS011;72858;52.130;5.584;2023-10-31T05:41:51;6.03;;;2.78;;
82513;SDS011;72858;52.130;5.584;2023-10-31T05:44:17;3.80;;;2.65;;
82513;SDS011;72858;52.130;5.584;2023-10-31T05:46:42;5.17;;;2.73;;
82513;SDS011;72858;52.130;5.584;2023-10-31T05:49:07;7.30;;;3.17;;
82513;SDS011;72858;52.130;5.584;2023-10-31T05:51:33;4.43;;;3.05;;
82513;SDS011;72858;52.130;5.584;2023-10-31T05:53:58;5.75;;;3.42;;
82513;SDS011;72858;52.130;5.584;2023-10-31T05:56:23;3.85;;;3.45;;
82513;SDS011;72858;52.130;5.584;2023-10-31T05:58:49;7.32;;;3.55;;
82513;SDS011;72858;52.130;5.584;2023-10-31T06:01:14;4.83;;;4.43;;
82513;SDS011;72858;52.130;5.584;2023-10-31T06:03:42;8.70;;;4.60;;
82513;SDS011;72858;52.130;5.584;2023-10-31T06:06:08;10.88;;;6.15;;
82513;SDS011;72858;52.130;5.584;2023-10-31T06:08:34;8.80;;;6.95;;
82513;SDS011;72858;52.130;5.584;2023-10-31T06:10:59;12.82;;;7.15;;
82513;SDS011;72858;52.130;5.584;2023-10-31T06:13:25;7.85;;;7.10;;
82513;SDS011;72858;52.130;5.584;2023-10-31T06:15:55;11.38;;;8.25;;
82513;SDS011;72858;52.130;5.584;2023-10-31T06:18:20;12.68;;;9.02;;
82513;SDS011;72858;52.130;5.584;2023-10-31T06:20:45;11.65;;;9.38;;
82513;SDS011;72858;52.130;5.584;2023-10-31T06:23:10;10.27;;;8.68;;
82513;SDS011;72858;52.130;5.584;2023-10-31T06:25:35;17.03;;;8.83;;
82513;SDS011;72858;52.130;5.584;2023-10-31T06:28:01;11.43;;;9.57;;
82513;SDS011;72858;52.130;5.584;2023-10-31T06:30:26;14.37;;;9.03;;
82513;SDS011;72858;52.130;5.584;2023-10-31T06:32:52;9.23;;;8.33;;
82513;SDS011;72858;52.130;5.584;2023-10-31T06:35:17;8.40;;;7.70;;
82513;SDS011;72858;52.130;5.584;2023-10-31T06:37:42;9.07;;;8.00;;
82513;SDS011;72858;52.130;5.584;2023-10-31T06:40:08;8.20;;;7.23;;
82513;SDS011;72858;52.130;5.584;2023-10-31T06:42:33;9.73;;;7.25;;
82513;SDS011;72858;52.130;5.584;2023-10-31T06:44:58;7.57;;;6.77;;
82513;SDS011;72858;52.130;5.584;2023-10-31T06:47:23;7.23;;;6.13;;
82513;SDS011;72858;52.130;5.584;2023-10-31T06:49:48;7.70;;;7.00;;
82513;SDS011;72858;52.130;5.584;2023-10-31T06:52:14;7.00;;;6.30;;
82513;SDS011;72858;52.130;5.584;2023-10-31T06:54:39;6.83;;;6.13;;
82513;SDS011;72858;52.130;5.584;2023-10-31T06:57:04;7.43;;;5.10;;
82513;SDS011;72858;52.130;5.584;2023-10-31T06:59:29;5.68;;;5.18;;
82513;SDS011;72858;52.130;5.584;2023-10-31T07:01:55;4.97;;;4.50;;
82513;SDS011;72858;52.130;5.584;2023-10-31T07:04:20;6.22;;;4.45;;
82513;SDS011;72858;52.130;5.584;2023-10-31T07:06:45;8.63;;;4.57;;
82513;SDS011;72858;52.130;5.584;2023-10-31T07:09:10;4.73;;;4.23;;
82513;SDS011;72858;52.130;5.584;2023-10-31T07:11:36;7.90;;;3.60;;
82513;SDS011;72858;52.130;5.584;2023-10-31T07:14:01;7.00;;;3.75;;
82513;SDS011;72858;52.130;5.584;2023-10-31T07:16:27;4.13;;;3.75;;
82513;SDS011;72858;52.130;5.584;2023-10-31T07:18:52;5.15;;;3.70;;
82513;SDS011;72858;52.130;5.584;2023-10-31T07:21:17;9.30;;;3.77;;
82513;SDS011;72858;52.130;5.584;2023-10-31T07:23:43;4.28;;;3.20;;
82513;SDS011;72858;52.130;5.584;2023-10-31T07:26:09;6.47;;;3.22;;
82513;SDS011;72858;52.130;5.584;2023-10-31T07:28:34;4.10;;;3.20;;
82513;SDS011;72858;52.130;5.584;2023-10-31T07:31:00;5.63;;;3.30;;
82513;SDS011;72858;52.130;5.584;2023-10-31T07:33:25;3.95;;;2.83;;
82513;SDS011;72858;52.130;5.584;2023-10-31T07:35:50;4.13;;;3.03;;
82513;SDS011;72858;52.130;5.584;2023-10-31T07:38:16;4.57;;;2.83;;
82513;SDS011;72858;52.130;5.584;2023-10-31T07:40:41;9.43;;;3.13;;
82513;SDS011;72858;52.130;5.584;2023-10-31T07:43:06;8.17;;;3.40;;
82513;SDS011;72858;52.130;5.584;2023-10-31T07:45:31;3.93;;;2.93;;
82513;SDS011;72858;52.130;5.584;2023-10-31T07:47:56;5.43;;;3.13;;
82513;SDS011;72858;52.130;5.584;2023-10-31T07:50:22;4.73;;;3.23;;
82513;SDS011;72858;52.130;5.584;2023-10-31T07:52:47;4.17;;;3.80;;
82513;SDS011;72858;52.130;5.584;2023-10-31T07:55:12;7.95;;;4.40;;
82513;SDS011;72858;52.130;5.584;2023-10-31T07:57:37;7.10;;;4.33;;
82513;SDS011;72858;52.130;5.584;2023-10-31T08:00:03;6.70;;;5.63;;
82513;SDS011;72858;52.130;5.584;2023-10-31T08:02:28;5.88;;;4.95;;
82513;SDS011;72858;52.130;5.584;2023-10-31T08:04:53;8.27;;;5.90;;
82513;SDS011;72858;52.130;5.584;2023-10-31T08:07:19;6.67;;;5.53;;
82513;SDS011;72858;52.130;5.584;2023-10-31T08:09:45;8.95;;;6.00;;
82513;SDS011;72858;52.130;5.584;2023-10-31T08:12:10;6.53;;;5.90;;
82513;SDS011;72858;52.130;5.584;2023-10-31T08:14:35;8.30;;;6.38;;
82513;SDS011;72858;52.130;5.584;2023-10-31T08:17:01;9.30;;;6.63;;
82513;SDS011;72858;52.130;5.584;2023-10-31T08:19:26;6.60;;;6.00;;
82513;SDS011;72858;52.130;5.584;2023-10-31T08:21:51;7.30;;;5.63;;
82513;SDS011;72858;52.130;5.584;2023-10-31T08:24:17;9.80;;;5.50;;
82513;SDS011;72858;52.130;5.584;2023-10-31T08:26:42;9.32;;;5.88;;
82513;SDS011;72858;52.130;5.584;2023-10-31T08:29:07;7.10;;;5.82;;
82513;SDS011;72858;52.130;5.584;2023-10-31T08:31:33;9.50;;;5.73;;
82513;SDS011;72858;52.130;5.584;2023-10-31T08:33:58;9.15;;;5.93;;
82513;SDS011;72858;52.130;5.584;2023-10-31T08:36:23;11.03;;;6.50;;
82513;SDS011;72858;52.130;5.584;2023-10-31T08:38:48;6.67;;;5.87;;
82513;SDS011;72858;52.130;5.584;2023-10-31T08:41:14;10.48;;;6.85;;
82513;SDS011;72858;52.130;5.584;2023-10-31T08:43:44;7.40;;;5.40;;
82513;SDS011;72858;52.130;5.584;2023-10-31T08:46:10;11.25;;;6.43;;
82513;SDS011;72858;52.130;5.584;2023-10-31T08:48:35;7.63;;;5.05;;
82513;SDS011;72858;52.130;5.584;2023-10-31T08:51:00;10.03;;;6.30;;
82513;SDS011;72858;52.130;5.584;2023-10-31T08:53:25;11.60;;;5.80;;
82513;SDS011;72858;52.130;5.584;2023-10-31T08:55:50;13.17;;;6.13;;
82513;SDS011;72858;52.130;5.584;2023-10-31T08:58:15;9.40;;;6.03;;
82513;SDS011;72858;52.130;5.584;2023-10-31T09:00:43;7.68;;;6.35;;
82513;SDS011;72858;52.130;5.584;2023-10-31T09:03:08;6.27;;;5.67;;
82513;SDS011;72858;52.130;5.584;2023-10-31T09:05:33;8.98;;;5.55;;
82513;SDS011;72858;52.130;5.584;2023-10-31T09:07:59;9.52;;;6.43;;
82513;SDS011;72858;52.130;5.584;2023-10-31T09:10:24;8.50;;;5.93;;
82513;SDS011;72858;52.130;5.584;2023-10-31T09:12:49;10.33;;;6.23;;
82513;SDS011;72858;52.130;5.584;2023-10-31T09:15:14;12.43;;;6.90;;
82513;SDS011;72858;52.130;5.584;2023-10-31T09:17:39;11.77;;;6.20;;
82513;SDS011;72858;52.130;5.584;2023-10-31T09:20:05;11.20;;;5.40;;
82513;SDS011;72858;52.130;5.584;2023-10-31T09:22:30;9.13;;;6.18;;
82513;SDS011;72858;52.130;5.584;2023-10-31T09:24:55;11.40;;;6.60;;
82513;SDS011;72858;52.130;5.584;2023-10-31T09:27:20;18.33;;;6.77;;
82513;SDS011;72858;52.130;5.584;2023-10-31T09:29:45;10.03;;;6.57;;
82513;SDS011;72858;52.130;5.584;2023-10-31T09:32:11;9.37;;;6.43;;
82513;SDS011;72858;52.130;5.584;2023-10-31T09:34:36;11.67;;;7.10;;
82513;SDS011;72858;52.130;5.584;2023-10-31T09:37:01;7.10;;;5.73;;
82513;SDS011;72858;52.130;5.584;2023-10-31T09:39:27;11.88;;;6.35;;
82513;SDS011;72858;52.130;5.584;2023-10-31T09:41:53;10.90;;;5.90;;
82513;SDS011;72858;52.130;5.584;2023-10-31T09:44:18;12.35;;;6.78;;
82513;SDS011;72858;52.130;5.584;2023-10-31T09:46:45;12.45;;;6.95;;
82513;SDS011;72858;52.130;5.584;2023-10-31T09:49:10;11.60;;;6.88;;
82513;SDS011;72858;52.130;5.584;2023-10-31T09:51:36;14.18;;;7.00;;
82513;SDS011;72858;52.130;5.584;2023-10-31T09:54:02;10.75;;;6.65;;
82513;SDS011;72858;52.130;5.584;2023-10-31T09:56:28;10.85;;;7.03;;
82513;SDS011;72858;52.130;5.584;2023-10-31T09:58:59;8.18;;;6.38;;
82513;SDS011;72858;52.130;5.584;2023-10-31T10:01:25;6.80;;;6.10;;
82513;SDS011;72858;52.130;5.584;2023-10-31T10:03:50;10.65;;;6.22;;
82513;SDS011;72858;52.130;5.584;2023-10-31T10:06:15;7.70;;;5.93;;
82513;SDS011;72858;52.130;5.584;2023-10-31T10:08:40;11.27;;;7.43;;
82513;SDS011;72858;52.130;5.584;2023-10-31T10:11:06;11.77;;;6.22;;
82513;SDS011;72858;52.130;5.584;2023-10-31T10:13:31;9.48;;;6.80;;
82513;SDS011;72858;52.130;5.584;2023-10-31T10:15:57;7.78;;;6.07;;
82513;SDS011;72858;52.130;5.584;2023-10-31T10:18:26;7.80;;;6.20;;
82513;SDS011;72858;52.130;5.584;2023-10-31T10:20:58;14.27;;;6.60;;
82513;SDS011;72858;52.130;5.584;2023-10-31T10:23:24;10.68;;;5.88;;
82513;SDS011;72858;52.130;5.584;2023-10-31T10:25:49;10.27;;;5.93;;
82513;SDS011;72858;52.130;5.584;2023-10-31T10:28:15;10.55;;;6.13;;
82513;SDS011;72858;52.130;5.584;2023-10-31T10:30:40;10.40;;;6.15;;
82513;SDS011;72858;52.130;5.584;2023-10-31T10:33:06;10.88;;;5.85;;
82513;SDS011;72858;52.130;5.584;2023-10-31T10:35:31;11.17;;;5.97;;
82513;SDS011;72858;52.130;5.584;2023-10-31T10:37:56;14.13;;;5.37;;
82513;SDS011;72858;52.130;5.584;2023-10-31T10:40:22;12.10;;;5.32;;
82513;SDS011;72858;52.130;5.584;2023-10-31T10:42:48;11.00;;;5.80;;
82513;SDS011;72858;52.130;5.584;2023-10-31T10:45:15;7.93;;;5.55;;
82513;SDS011;72858;52.130;5.584;2023-10-31T10:47:43;9.00;;;5.35;;
82513;SDS011;72858;52.130;5.584;2023-10-31T10:50:10;11.10;;;5.15;;
82513;SDS011;72858;52.130;5.584;2023-10-31T10:55:13;8.02;;;5.40;;
82513;SDS011;72858;52.130;5.584;2023-10-31T10:57:51;9.82;;;5.70;;
82513;SDS011;72858;52.130;5.584;2023-10-31T11:00:19;10.95;;;4.90;;
82513;SDS011;72858;52.130;5.584;2023-10-31T11:02:49;11.77;;;5.05;;
82513;SDS011;72858;52.130;5.584;2023-10-31T11:05:17;9.07;;;4.45;;
82513;SDS011;72858;52.130;5.584;2023-10-31T11:07:43;9.55;;;4.28;;
82513;SDS011;72858;52.130;5.584;2023-10-31T11:10:09;7.10;;;3.90;;
82513;SDS011;72858;52.130;5.584;2023-10-31T11:12:34;6.90;;;4.40;;
82513;SDS011;72858;52.130;5.584;2023-10-31T11:15:02;10.63;;;4.10;;
82513;SDS011;72858;52.130;5.584;2023-10-31T11:17:29;10.05;;;4.85;;
82513;SDS011;72858;52.130;5.584;2023-10-31T11:19:54;11.68;;;5.55;;
82513;SDS011;72858;52.130;5.584;2023-10-31T11:22:20;12.20;;;5.53;;
82513;SDS011;72858;52.130;5.584;2023-10-31T11:24:47;7.25;;;4.68;;
82513;SDS011;72858;52.130;5.584;2023-10-31T11:27:13;16.15;;;7.05;;
82513;SDS011;72858;52.130;5.584;2023-10-31T11:29:38;12.43;;;8.10;;
82513;SDS011;72858;52.130;5.584;2023-10-31T11:32:07;12.70;;;8.18;;
82513;SDS011;72858;52.130;5.584;2023-10-31T11:34:33;13.40;;;8.00;;
82513;SDS011;72858;52.130;5.584;2023-10-31T11:42:42;8.95;;;5.30;;
82513;SDS011;72858;52.130;5.584;2023-10-31T11:45:08;11.27;;;4.97;;
82513;SDS011;72858;52.130;5.584;2023-10-31T11:47:49;11.05;;;5.03;;
82513;SDS011;72858;52.130;5.584;2023-10-31T11:50:15;8.05;;;4.70;;
82513;SDS011;72858;52.130;5.584;2023-10-31T11:52:40;9.00;;;5.13;;
82513;SDS011;72858;52.130;5.584;2023-10-31T11:55:12;11.75;;;5.63;;
82513;SDS011;72858;52.130;5.584;2023-10-31T11:57:40;11.80;;;5.50;;
82513;SDS011;72858;52.130;5.584;2023-10-31T12:00:05;15.63;;;5.88;;
82513;SDS011;72858;52.130;5.584;2023-10-31T12:02:32;13.00;;;6.20;;
82513;SDS011;72858;52.130;5.584;2023-10-31T12:05:07;10.85;;;6.43;;
82513;SDS011;72858;52.130;5.584;2023-10-31T12:07:42;10.40;;;6.75;;
82513;SDS011;72858;52.130;5.584;2023-10-31T12:10:08;12.57;;;7.57;;
82513;SDS011;72858;52.130;5.584;2023-10-31T12:12:33;9.18;;;8.20;;
82513;SDS011;72858;52.130;5.584;2023-10-31T12:15:07;16.80;;;12.37;;
82513;SDS011;72858;52.130;5.584;2023-10-31T12:17:33;17.20;;;12.05;;
82513;SDS011;72858;52.130;5.584;2023-10-31T12:20:02;12.57;;;10.90;;
82513;SDS011;72858;52.130;5.584;2023-10-31T12:22:28;16.45;;;12.43;;
82513;SDS011;72858;52.130;5.584;2023-10-31T12:24:59;19.70;;;14.07;;
82513;SDS011;72858;52.130;5.584;2023-10-31T12:27:24;21.02;;;14.32;;
82513;SDS011;72858;52.130;5.584;2023-10-31T12:29:59;24.97;;;18.07;;
82513;SDS011;72858;52.130;5.584;2023-10-31T12:32:24;25.95;;;21.45;;
82513;SDS011;72858;52.130;5.584;2023-10-31T12:34:49;26.75;;;21.52;;
82513;SDS011;72858;52.130;5.584;2023-10-31T12:37:15;33.60;;;23.00;;
82513;SDS011;72858;52.130;5.584;2023-10-31T12:39:40;37.13;;;24.93;;
82513;SDS011;72858;52.130;5.584;2023-10-31T12:42:05;33.90;;;23.50;;
82513;SDS011;72858;52.130;5.584;2023-10-31T12:44:30;35.55;;;24.10;;
82513;SDS011;72858;52.130;5.584;2023-10-31T12:46:57;38.90;;;26.02;;
82513;SDS011;72858;52.130;5.584;2023-10-31T12:49:22;35.40;;;24.58;;
82513;SDS011;72858;52.130;5.584;2023-10-31T12:52:00;35.38;;;24.52;;
82513;SDS011;72858;52.130;5.584;2023-10-31T12:54:30;40.97;;;26.77;;
82513;SDS011;72858;52.130;5.584;2023-10-31T12:56:58;40.75;;;26.08;;
82513;SDS011;72858;52.130;5.584;2023-10-31T12:59:24;38.03;;;25.00;;
82513;SDS011;72858;52.130;5.584;2023-10-31T13:01:49;43.50;;;26.47;;
82513;SDS011;72858;52.130;5.584;2023-10-31T13:04:23;45.30;;;25.10;;
82513;SDS011;72858;52.130;5.584;2023-10-31T13:06:58;45.65;;;25.45;;
82513;SDS011;72858;52.130;5.584;2023-10-31T13:09:27;41.03;;;24.35;;
82513;SDS011;72858;52.130;5.584;2023-10-31T13:11:52;39.05;;;24.17;;
82513;SDS011;72858;52.130;5.584;2023-10-31T13:14:18;39.90;;;22.30;;
82513;SDS011;72858;52.130;5.584;2023-10-31T13:16:43;42.40;;;23.92;;
82513;SDS011;72858;52.130;5.584;2023-10-31T13:19:08;36.77;;;22.33;;
82513;SDS011;72858;52.130;5.584;2023-10-31T13:21:33;34.83;;;20.45;;
82513;SDS011;72858;52.130;5.584;2023-10-31T13:23:58;34.13;;;21.30;;
82513;SDS011;72858;52.130;5.584;2023-10-31T13:26:24;38.90;;;21.83;;
82513;SDS011;72858;52.130;5.584;2023-10-31T13:28:49;34.73;;;20.83;;
82513;SDS011;72858;52.130;5.584;2023-10-31T13:31:14;34.53;;;20.57;;
82513;SDS011;72858;52.130;5.584;2023-10-31T13:33:39;37.53;;;21.42;;
82513;SDS011;72858;52.130;5.584;2023-10-31T13:36:05;41.50;;;22.77;;
82513;SDS011;72858;52.130;5.584;2023-10-31T13:38:30;37.65;;;21.85;;
82513;SDS011;72858;52.130;5.584;2023-10-31T13:40:55;38.23;;;20.37;;
82513;SDS011;72858;52.130;5.584;2023-10-31T13:43:20;34.33;;;20.17;;
82513;SDS011;72858;52.130;5.584;2023-10-31T13:45:45;37.25;;;21.73;;
82513;SDS011;72858;52.130;5.584;2023-10-31T13:48:11;35.10;;;20.67;;
82513;SDS011;72858;52.130;5.584;2023-10-31T13:50:38;33.78;;;20.23;;
82513;SDS011;72858;52.130;5.584;2023-10-31T13:53:03;30.92;;;20.23;;
82513;SDS011;72858;52.130;5.584;2023-10-31T13:55:31;34.50;;;19.75;;
82513;SDS011;72858;52.130;5.584;2023-10-31T13:57:56;31.95;;;20.40;;
82513;SDS011;72858;52.130;5.584;2023-10-31T14:00:21;29.97;;;18.70;;
82513;SDS011;72858;52.130;5.584;2023-10-31T14:02:47;30.27;;;20.53;;
82513;SDS011;72858;52.130;5.584;2023-10-31T14:05:12;30.77;;;18.83;;
82513;SDS011;72858;52.130;5.584;2023-10-31T14:07:38;29.80;;;19.52;;
82513;SDS011;72858;52.130;5.584;2023-10-31T14:10:03;26.70;;;19.10;;
82513;SDS011;72858;52.130;5.584;2023-10-31T14:12:29;30.33;;;19.10;;
82513;SDS011;72858;52.130;5.584;2023-10-31T14:14:54;26.83;;;19.43;;
82513;SDS011;72858;52.130;5.584;2023-10-31T14:17:19;26.35;;;18.23;;
82513;SDS011;72858;52.130;5.584;2023-10-31T14:19:44;27.02;;;19.33;;
82513;SDS011;72858;52.130;5.584;2023-10-31T14:22:11;29.33;;;20.63;;
82513;SDS011;72858;52.130;5.584;2023-10-31T14:24:36;30.77;;;19.52;;
82513;SDS011;72858;52.130;5.584;2023-10-31T14:27:01;26.60;;;19.40;;
82513;SDS011;72858;52.130;5.584;2023-10-31T14:29:27;25.00;;;19.33;;
82513;SDS011;72858;52.130;5.584;2023-10-31T14:31:52;33.53;;;20.42;;
82513;SDS011;72858;52.130;5.584;2023-10-31T14:34:19;28.88;;;20.88;;